Terminal Aerodrome Forecast
Issued by NWS Albany, NY

Home | Current Version | Previous Version | Text Only | Print | Product List | Glossary On
Versions: 1 2 3 4 5 6 7 8 9 10 11 12 13 14 15 16
000
FTUS41 KALY 311141
TAFGFL
TAF
KGFL 311141Z 3112/0112 19003KT P6SM SKC
      TEMPO 3112/3113 3SM BR
     FM311700 23008KT P6SM SCT050
     FM010000 VRB03KT P6SM SKC
     FM010300 00000KT 3SM BR SKC
     FM010800 00000KT 1/2SM FG VV002=

USA.gov is the U.S. government's official web portal to all federal, state and local government web resources and services.